createdAt,value
2023-02-24T00:00:08.066Z,99.99
2023-02-24T00:01:08.120Z,99.99
2023-02-24T00:02:08.185Z,99.99
2023-02-24T00:03:08.047Z,99.99
2023-02-24T00:04:08.058Z,99.99
2023-02-24T00:05:07.999Z,99.99
2023-02-24T00:06:08.048Z,99.99
2023-02-24T00:07:07.990Z,99.99
2023-02-24T00:08:07.970Z,99.99
2023-02-24T00:09:07.969Z,99.99
2023-02-24T00:10:07.968Z,99.99
2023-02-24T00:11:07.910Z,99.99
2023-02-24T00:12:07.911Z,99.99
2023-02-24T00:13:07.939Z,99.99
2023-02-24T00:14:07.890Z,99.99
2023-02-24T00:15:07.874Z,99.99
2023-02-24T00:16:07.982Z,99.99
2023-02-24T00:17:07.926Z,99.99
2023-02-24T00:18:07.884Z,99.99
2023-02-24T00:19:07.810Z,99.99
2023-02-24T00:20:07.823Z,99.99
2023-02-24T00:21:07.823Z,99.99
2023-02-24T00:22:07.806Z,99.99
2023-02-24T00:23:07.800Z,99.99
2023-02-24T00:24:07.748Z,99.99
2023-02-24T00:25:07.760Z,99.99
2023-02-24T00:26:07.786Z,99.99
2023-02-24T00:27:08.064Z,99.99
2023-02-24T00:28:07.700Z,99.99
2023-02-24T00:29:07.712Z,99.99
2023-02-24T00:30:07.736Z,99.99
2023-02-24T00:31:07.734Z,99.99
2023-02-24T00:32:08.063Z,99.99
2023-02-24T00:33:07.734Z,99.99
2023-02-24T00:34:07.622Z,99.99
2023-02-24T00:35:07.623Z,99.91
2023-02-24T00:36:07.592Z,99.99
2023-02-24T00:37:07.682Z,99.99
2023-02-24T00:38:07.584Z,99.99
2023-02-24T00:39:07.539Z,99.99
2023-02-24T00:40:07.598Z,99.99
2023-02-24T00:41:07.598Z,99.99
2023-02-24T00:42:07.513Z,99.91
2023-02-24T00:43:07.544Z,99.81
2023-02-24T00:44:07.485Z,99.99
2023-02-24T00:45:07.537Z,99.99
2023-02-24T00:46:07.529Z,99.99
2023-02-24T00:47:07.454Z,99.99
2023-02-24T00:48:07.445Z,99.99
2023-02-24T00:49:07.439Z,99.99
2023-02-24T00:50:07.449Z,99.96
2023-02-24T00:51:07.399Z,99.96
2023-02-24T00:52:07.401Z,99.99
2023-02-24T00:53:07.385Z,99.99
2023-02-24T00:54:07.365Z,99.99
2023-02-24T00:55:07.375Z,99.99
2023-02-24T00:56:07.348Z,99.99
2023-02-24T00:57:07.355Z,99.99
2023-02-24T00:58:07.395Z,99.99
2023-02-24T00:59:07.298Z,99.99
2023-02-24T01:00:07.346Z,99.99
2023-02-24T01:01:07.276Z,99.99
2023-02-24T01:02:07.520Z,99.99
2023-02-24T01:03:07.257Z,99.99
2023-02-24T01:04:07.240Z,99.99
2023-02-24T01:05:07.299Z,99.99
2023-02-24T01:06:07.212Z,99.99
2023-02-24T01:07:07.183Z,99.99
2023-02-24T01:08:07.234Z,99.99
2023-02-24T01:09:07.164Z,99.99
2023-02-24T01:10:07.180Z,99.99
2023-02-24T01:11:07.148Z,99.99
2023-02-24T01:12:07.185Z,99.99
2023-02-24T01:13:07.120Z,99.99
2023-02-24T01:14:07.097Z,99.99
2023-02-24T01:15:07.110Z,99.99
2023-02-24T01:16:07.171Z,99.99
2023-02-24T01:17:07.056Z,99.99
2023-02-24T01:18:07.045Z,99.99
2023-02-24T01:19:07.081Z,99.99
2023-02-24T01:20:07.052Z,99.99
2023-02-24T01:21:07.018Z,99.99
2023-02-24T01:22:06.997Z,99.99
2023-02-24T01:23:06.991Z,99.99
2023-02-24T01:24:07.069Z,99.99
2023-02-24T01:25:06.970Z,99.99
2023-02-24T01:26:06.999Z,99.99
2023-02-24T01:27:06.971Z,99.99
2023-02-24T01:28:06.932Z,99.99
2023-02-24T01:29:06.902Z,99.99
2023-02-24T01:30:06.888Z,99.99
2023-02-24T01:31:07.233Z,99.99
2023-02-24T01:32:07.033Z,99.99
2023-02-24T01:33:07.098Z,99.99
2023-02-24T01:34:06.856Z,99.99
2023-02-24T01:35:06.828Z,99.99
2023-02-24T01:36:06.909Z,99.99
2023-02-24T01:37:06.799Z,99.99
2023-02-24T01:38:06.795Z,99.99
2023-02-24T01:39:06.768Z,99.99
2023-02-24T01:40:06.821Z,99.99
2023-02-24T01:41:06.805Z,99.99
2023-02-24T01:42:06.759Z,99.99
2023-02-24T01:43:06.754Z,99.99
2023-02-24T01:44:06.722Z,99.99
2023-02-24T01:45:06.724Z,99.99
2023-02-24T01:46:06.734Z,99.99
2023-02-24T01:47:06.661Z,99.99
2023-02-24T01:48:06.699Z,99.99
2023-02-24T01:49:06.642Z,99.99
2023-02-24T01:50:06.668Z,99.99
2023-02-24T01:51:06.711Z,99.99
2023-02-24T01:52:06.607Z,99.99
2023-02-24T01:53:06.591Z,99.99
2023-02-24T01:54:06.641Z,99.99
2023-02-24T01:55:06.565Z,99.99
2023-02-24T01:56:06.602Z,99.99
2023-02-24T01:57:06.558Z,99.99
2023-02-24T01:58:06.570Z,99.99
2023-02-24T01:59:06.527Z,99.99
2023-02-24T02:00:06.537Z,99.99
2023-02-24T02:01:06.532Z,99.99
2023-02-24T02:02:06.628Z,99.99
2023-02-24T02:03:06.462Z,99.99
2023-02-24T02:04:06.448Z,99.99
2023-02-24T02:05:06.430Z,99.99
2023-02-24T02:06:06.472Z,99.99
2023-02-24T02:07:06.407Z,99.99
2023-02-24T02:08:06.399Z,99.99
2023-02-24T02:09:06.456Z,99.99
2023-02-24T02:10:06.422Z,99.99
2023-02-24T02:11:06.412Z,99.99
2023-02-24T02:12:06.403Z,99.99
2023-02-24T02:13:06.332Z,99.99
2023-02-24T02:14:06.416Z,99.99
2023-02-24T02:15:06.340Z,99.99
2023-02-24T02:16:06.391Z,99.99
2023-02-24T02:17:06.283Z,99.99
2023-02-24T02:18:06.271Z,99.99
2023-02-24T02:19:06.253Z,99.99
2023-02-24T02:20:06.252Z,99.99
2023-02-24T02:21:06.253Z,99.99
2023-02-24T02:22:06.268Z,99.99
2023-02-24T02:23:06.279Z,99.99
2023-02-24T02:24:06.185Z,99.99
2023-02-24T02:25:06.179Z,99.99
2023-02-24T02:26:06.233Z,99.99
2023-02-24T02:27:06.163Z,99.99
2023-02-24T02:28:06.150Z,99.99
2023-02-24T02:29:06.180Z,99.99
2023-02-24T02:30:06.112Z,99.99
2023-02-24T02:31:06.208Z,99.99
2023-02-24T02:32:06.188Z,99.99
2023-02-24T02:33:06.117Z,99.99
2023-02-24T02:34:06.080Z,99.99
2023-02-24T02:35:06.044Z,99.99
2023-02-24T02:36:06.037Z,99.99
2023-02-24T02:37:06.130Z,99.99
2023-02-24T02:38:06.007Z,99.99
2023-02-24T02:39:06.007Z,99.99
2023-02-24T02:40:05.983Z,99.99
2023-02-24T02:41:05.999Z,99.99
2023-02-24T02:42:05.989Z,99.99
2023-02-24T02:43:05.937Z,99.99
2023-02-24T02:44:05.922Z,99.99
2023-02-24T02:45:05.912Z,99.99
2023-02-24T02:46:05.943Z,99.99
2023-02-24T02:47:05.887Z,99.99
2023-02-24T02:48:05.898Z,99.99
2023-02-24T02:49:05.864Z,99.99
2023-02-24T02:50:05.853Z,99.99
2023-02-24T02:51:05.888Z,99.99
2023-02-24T02:52:05.880Z,99.99
2023-02-24T02:53:05.797Z,99.99
2023-02-24T02:54:05.825Z,99.90
2023-02-24T02:55:05.770Z,99.90
2023-02-24T02:56:05.783Z,99.80
2023-02-24T02:57:05.792Z,99.99
2023-02-24T02:58:05.815Z,99.99
2023-02-24T02:59:05.722Z,99.99
2023-02-24T03:00:05.720Z,99.99
2023-02-24T03:01:05.780Z,99.99
2023-02-24T03:02:05.690Z,99.99
2023-02-24T03:03:11.790Z,99.99
2023-02-24T03:04:05.703Z,99.99
2023-02-24T03:05:05.791Z,99.99
2023-02-24T03:06:05.660Z,99.99
2023-02-24T03:07:05.749Z,99.99
2023-02-24T03:08:05.749Z,99.99
2023-02-24T03:09:05.618Z,99.99
2023-02-24T03:10:05.668Z,99.90
2023-02-24T03:11:05.684Z,99.99
2023-02-24T03:12:05.715Z,99.99
2023-02-24T03:13:05.674Z,99.99
2023-02-24T03:14:05.559Z,99.99
2023-02-24T03:15:05.585Z,99.99
2023-02-24T03:16:05.558Z,99.99
2023-02-24T03:17:05.646Z,99.90
2023-02-24T03:18:05.484Z,99.90
2023-02-24T03:19:05.477Z,99.99
2023-02-24T03:20:05.462Z,99.99
2023-02-24T03:21:05.452Z,99.99
2023-02-24T03:22:05.421Z,99.99
2023-02-24T03:23:05.412Z,99.99
2023-02-24T03:24:05.431Z,99.99
2023-02-24T03:25:05.406Z,99.99
2023-02-24T03:26:05.369Z,99.99
2023-02-24T03:27:05.376Z,99.95
2023-02-24T03:28:05.378Z,99.85
2023-02-24T03:29:05.344Z,99.95
2023-02-24T03:30:05.315Z,99.99
2023-02-24T03:31:05.355Z,99.99
2023-02-24T03:32:05.468Z,99.95
2023-02-24T03:33:05.277Z,99.95
2023-02-24T03:34:05.311Z,99.95
2023-02-24T03:35:05.277Z,99.99
2023-02-24T03:36:05.248Z,99.99
2023-02-24T03:37:05.227Z,99.99
2023-02-24T03:38:05.239Z,99.99
2023-02-24T03:39:05.250Z,99.99
2023-02-24T03:40:05.232Z,99.99
2023-02-24T03:41:05.177Z,99.99
2023-02-24T03:42:05.173Z,99.99
2023-02-24T03:43:05.150Z,99.99
2023-02-24T03:44:05.170Z,99.99
2023-02-24T03:45:05.123Z,99.99
2023-02-24T03:46:05.178Z,99.99
2023-02-24T03:47:05.107Z,99.99
2023-02-24T03:48:05.083Z,99.99
2023-02-24T03:49:05.114Z,99.99
2023-02-24T03:50:05.060Z,99.99
2023-02-24T03:51:05.060Z,99.90
2023-02-24T03:52:05.029Z,99.90
2023-02-24T03:53:05.048Z,99.90
2023-02-24T03:54:05.044Z,99.70
2023-02-24T03:55:05.014Z,99.60
2023-02-24T03:56:04.977Z,99.64
2023-02-24T03:57:04.982Z,99.95
2023-02-24T03:58:04.992Z,99.90
2023-02-24T03:59:03.938Z,99.90
2023-02-24T04:00:04.953Z,99.80
2023-02-24T04:01:04.917Z,99.60
2023-02-24T04:02:04.941Z,99.60
2023-02-24T04:03:04.892Z,99.60
2023-02-24T04:04:04.867Z,99.49
2023-02-24T04:05:04.920Z,99.29
2023-02-24T04:06:04.846Z,98.97
2023-02-24T04:07:04.844Z,99.08
2023-02-24T04:08:04.820Z,99.08
2023-02-24T04:09:04.805Z,99.18
2023-02-24T04:10:04.826Z,99.43
2023-02-24T04:11:04.790Z,99.29
2023-02-24T04:12:04.765Z,99.08
2023-02-24T04:13:04.777Z,99.08
2023-02-24T04:14:04.740Z,99.18
2023-02-24T04:15:04.814Z,99.29
2023-02-24T04:16:04.778Z,99.18
2023-02-24T04:17:04.715Z,99.08
2023-02-24T04:18:04.701Z,98.88
2023-02-24T04:19:04.700Z,98.88
2023-02-24T04:20:04.676Z,98.77
2023-02-24T04:21:04.664Z,98.77
2023-02-24T04:22:04.631Z,98.77
2023-02-24T04:23:04.655Z,98.77
2023-02-24T04:24:04.597Z,98.67
2023-02-24T04:25:04.601Z,98.67
2023-02-24T04:26:04.585Z,98.67
2023-02-24T04:27:04.574Z,98.57
2023-02-24T04:28:04.595Z,98.67
2023-02-24T04:29:04.550Z,98.67
2023-02-24T04:30:04.559Z,98.57
2023-02-24T04:31:04.686Z,98.36
2023-02-24T04:32:04.660Z,98.46
2023-02-24T04:33:04.534Z,98.57
2023-02-24T04:34:04.504Z,98.57
2023-02-24T04:35:04.499Z,98.57
2023-02-24T04:36:04.458Z,98.57
2023-02-24T04:37:04.487Z,98.46
2023-02-24T04:38:04.488Z,98.25
2023-02-24T04:39:06.549Z,98.05
2023-02-24T04:40:04.474Z,97.95
2023-02-24T04:41:04.394Z,98.15
2023-02-24T04:42:04.370Z,98.15
2023-02-24T04:43:04.405Z,98.36
2023-02-24T04:44:04.346Z,98.15
2023-02-24T04:45:04.350Z,97.95
2023-02-24T04:46:04.342Z,97.74
2023-02-24T04:47:04.316Z,97.85
2023-02-24T04:48:04.296Z,98.05
2023-02-24T04:49:04.308Z,98.50
2023-02-24T04:50:04.287Z,98.82
2023-02-24T04:51:04.266Z,98.82
2023-02-24T04:52:04.248Z,99.02
2023-02-24T04:53:04.235Z,99.13
2023-02-24T04:54:04.247Z,99.23
2023-02-24T04:55:04.234Z,99.33
2023-02-24T04:56:04.190Z,99.43
2023-02-24T04:57:04.186Z,99.54
2023-02-24T04:58:04.169Z,99.74
2023-02-24T04:59:04.172Z,99.79
2023-02-24T05:00:04.135Z,99.79
2023-02-24T05:01:04.127Z,99.90
2023-02-24T05:02:04.121Z,99.90
2023-02-24T05:03:04.111Z,99.99
2023-02-24T05:04:04.203Z,99.99
2023-02-24T05:05:04.079Z,99.90
2023-02-24T05:06:04.072Z,99.79
2023-02-24T05:07:04.077Z,99.99
2023-02-24T05:08:04.049Z,99.99
2023-02-24T05:09:04.054Z,99.99
2023-02-24T05:10:04.017Z,99.99
2023-02-24T05:11:04.182Z,99.99
2023-02-24T05:12:03.988Z,99.99
2023-02-24T05:13:03.980Z,99.99
2023-02-24T05:14:03.967Z,99.99
2023-02-24T05:15:03.946Z,99.99
2023-02-24T05:16:03.969Z,99.99
2023-02-24T05:17:03.925Z,99.99
2023-02-24T05:18:03.905Z,99.99
2023-02-24T05:19:03.931Z,99.99
2023-02-24T05:20:03.895Z,99.99
2023-02-24T05:21:03.979Z,99.99
2023-02-24T05:22:03.883Z,99.99
2023-02-24T05:23:03.902Z,99.90
2023-02-24T05:24:03.973Z,99.99
2023-02-24T05:25:03.824Z,99.99
2023-02-24T05:26:03.819Z,99.99
2023-02-24T05:27:04.068Z,99.99
2023-02-24T05:28:03.872Z,99.99
2023-02-24T05:29:03.836Z,99.99
2023-02-24T05:30:03.768Z,99.99
2023-02-24T05:31:03.936Z,99.99
2023-02-24T05:32:03.921Z,99.99
2023-02-24T05:33:03.732Z,99.99
2023-02-24T05:34:03.730Z,99.99
2023-02-24T05:35:03.706Z,99.90
2023-02-24T05:36:05.279Z,99.90
2023-02-24T05:37:03.733Z,99.94
2023-02-24T05:38:03.656Z,99.99
2023-02-24T05:39:03.650Z,99.99
2023-02-24T05:40:04.080Z,99.99
2023-02-24T05:41:03.606Z,99.99
2023-02-24T05:42:03.653Z,99.79
2023-02-24T05:43:03.581Z,99.69
2023-02-24T05:44:03.729Z,99.79
2023-02-24T05:45:03.637Z,99.79
2023-02-24T05:46:03.616Z,99.69
2023-02-24T05:47:03.617Z,99.58
2023-02-24T05:48:03.508Z,99.58
2023-02-24T05:49:03.517Z,99.69
2023-02-24T05:50:03.489Z,99.58
2023-02-24T05:51:05.163Z,99.48
2023-02-24T05:52:03.476Z,99.48
2023-02-24T05:53:03.476Z,99.48
2023-02-24T05:54:03.425Z,99.48
2023-02-24T05:55:03.428Z,99.48
2023-02-24T05:56:03.415Z,99.27
2023-02-24T05:57:03.421Z,99.48
2023-02-24T05:58:03.324Z,99.48
2023-02-24T05:59:03.313Z,99.58
2023-02-24T06:00:03.297Z,99.69
2023-02-24T06:01:03.297Z,99.58
2023-02-24T06:02:03.415Z,99.58
2023-02-24T06:03:03.355Z,99.48
2023-02-24T06:04:03.245Z,99.58
2023-02-24T06:05:03.275Z,99.48
2023-02-24T06:06:03.243Z,99.38
2023-02-24T06:07:03.227Z,99.27
2023-02-24T06:08:03.201Z,99.17
2023-02-24T06:09:03.183Z,99.27
2023-02-24T06:10:03.166Z,99.17
2023-02-24T06:11:03.159Z,99.07
2023-02-24T06:12:03.197Z,99.07
2023-02-24T06:13:03.128Z,99.17
2023-02-24T06:14:03.127Z,99.52
2023-02-24T06:15:03.107Z,99.63
2023-02-24T06:16:03.099Z,99.69
2023-02-24T06:17:03.078Z,99.58
2023-02-24T06:18:03.075Z,99.48
2023-02-24T06:19:03.076Z,99.27
2023-02-24T06:20:03.044Z,99.38
2023-02-24T06:21:03.028Z,99.38
2023-02-24T06:22:03.008Z,99.27
2023-02-24T06:23:03.001Z,99.17
2023-02-24T06:24:03.031Z,99.27
2023-02-24T06:25:02.979Z,99.27
2023-02-24T06:26:02.959Z,99.38
2023-02-24T06:27:02.951Z,99.38
2023-02-24T06:28:02.931Z,99.27
2023-02-24T06:29:02.937Z,99.17
2023-02-24T06:30:02.911Z,99.07
2023-02-24T06:31:02.971Z,99.07
2023-02-24T06:32:03.000Z,99.38
2023-02-24T06:33:02.870Z,99.38
2023-02-24T06:34:02.890Z,99.48
2023-02-24T06:35:02.852Z,99.27
2023-02-24T06:36:02.829Z,99.17
2023-02-24T06:37:02.825Z,99.17
2023-02-24T06:38:02.805Z,99.43
2023-02-24T06:39:02.804Z,99.52
2023-02-24T06:40:02.797Z,99.52
2023-02-24T06:41:02.775Z,99.94
2023-02-24T06:42:02.753Z,99.99
2023-02-24T06:43:08.165Z,99.99
2023-02-24T06:44:02.730Z,99.79
2023-02-24T06:45:02.790Z,99.90
2023-02-24T06:46:02.905Z,99.69
2023-02-24T06:47:02.697Z,99.58
2023-02-24T06:48:02.679Z,99.58
2023-02-24T06:49:02.672Z,99.58
2023-02-24T06:50:02.685Z,99.48
2023-02-24T06:51:02.639Z,99.38
2023-02-24T06:52:02.812Z,99.17
2023-02-24T06:53:02.652Z,99.17
2023-02-24T06:54:02.621Z,99.17
2023-02-24T06:55:02.613Z,99.07
2023-02-24T06:56:02.569Z,99.07
2023-02-24T06:57:02.562Z,99.07
2023-02-24T06:58:02.565Z,98.82
2023-02-24T06:59:02.534Z,98.71
2023-02-24T07:00:02.538Z,98.86
2023-02-24T07:01:02.549Z,99.17
2023-02-24T07:02:02.529Z,99.48
2023-02-24T07:03:02.511Z,99.58
2023-02-24T07:04:02.580Z,99.79
2023-02-24T07:05:02.463Z,99.69
2023-02-24T07:06:02.443Z,99.90
2023-02-24T07:07:02.428Z,99.69
2023-02-24T07:08:02.437Z,99.79
2023-02-24T07:09:02.408Z,99.99
2023-02-24T07:10:02.393Z,99.90
2023-02-24T07:11:02.392Z,99.74
2023-02-24T07:12:02.373Z,99.64
2023-02-24T07:13:02.373Z,99.54
2023-02-24T07:14:02.340Z,99.54
2023-02-24T07:15:02.348Z,99.54
2023-02-24T07:16:02.312Z,99.54
2023-02-24T07:17:02.343Z,99.43
2023-02-24T07:18:02.281Z,99.54
2023-02-24T07:19:02.278Z,99.54
2023-02-24T07:20:02.322Z,99.64
2023-02-24T07:21:02.254Z,99.43
2023-02-24T07:22:02.275Z,99.43
2023-02-24T07:23:02.224Z,99.43
2023-02-24T07:24:02.222Z,99.43
2023-02-24T07:25:02.217Z,99.23
2023-02-24T07:26:02.181Z,99.33
2023-02-24T07:27:02.165Z,98.97
2023-02-24T07:28:02.152Z,99.13
2023-02-24T07:29:02.150Z,99.13
2023-02-24T07:30:02.191Z,99.23
2023-02-24T07:31:02.283Z,99.02
2023-02-24T07:32:02.198Z,99.13
2023-02-24T07:33:02.088Z,98.92
2023-02-24T07:34:02.066Z,99.02
2023-02-24T07:35:02.106Z,98.92
2023-02-24T07:36:02.039Z,99.13
2023-02-24T07:37:02.040Z,98.92
2023-02-24T07:38:02.033Z,99.23
2023-02-24T07:39:02.011Z,99.33
2023-02-24T07:40:02.034Z,99.33
2023-02-24T07:41:01.982Z,99.23
2023-02-24T07:42:01.962Z,99.08
2023-02-24T07:43:01.954Z,98.77
2023-02-24T07:44:01.953Z,98.67
2023-02-24T07:45:02.001Z,97.95
2023-02-24T07:46:01.917Z,97.95
2023-02-24T07:47:01.913Z,97.85
2023-02-24T07:48:01.888Z,98.05
2023-02-24T07:49:01.888Z,97.95
2023-02-24T07:50:01.862Z,97.69
2023-02-24T07:51:01.845Z,97.49
2023-02-24T07:52:01.841Z,97.28
2023-02-24T07:53:01.823Z,97.23
2023-02-24T07:54:01.829Z,97.33
2023-02-24T07:55:01.797Z,97.18
2023-02-24T07:56:01.789Z,96.97
2023-02-24T07:57:01.787Z,97.18
2023-02-24T07:58:01.765Z,96.88
2023-02-24T07:59:01.757Z,96.67
2023-02-24T08:00:01.743Z,96.61
2023-02-24T08:01:01.718Z,96.67
2023-02-24T08:02:01.700Z,96.88
2023-02-24T08:03:01.691Z,96.67
2023-02-24T08:04:01.677Z,96.67
2023-02-24T08:05:01.678Z,96.56
2023-02-24T08:06:01.646Z,96.67
2023-02-24T08:07:01.630Z,96.88
2023-02-24T08:08:01.623Z,96.77
2023-02-24T08:09:01.606Z,96.25
2023-02-24T08:10:01.656Z,96.36
2023-02-24T08:11:01.585Z,96.67
2023-02-24T08:12:01.590Z,96.97
2023-02-24T08:13:01.570Z,97.28
2023-02-24T08:14:01.556Z,97.74
2023-02-24T08:15:01.554Z,98.11
2023-02-24T08:16:01.564Z,98.21
2023-02-24T08:17:01.523Z,98.06
2023-02-24T08:18:01.507Z,97.69
2023-02-24T08:19:01.478Z,97.65
2023-02-24T08:20:01.534Z,97.44
2023-02-24T08:21:01.464Z,97.14
2023-02-24T08:22:01.444Z,96.93
2023-02-24T08:23:01.442Z,97.03
2023-02-24T08:24:01.425Z,96.72
2023-02-24T08:25:01.427Z,96.78
2023-02-24T08:26:01.405Z,96.37
2023-02-24T08:27:01.372Z,96.52
2023-02-24T08:28:08.025Z,97.65
2023-02-24T08:29:01.351Z,96.83
2023-02-24T08:30:01.369Z,96.11
2023-02-24T08:31:01.409Z,96.17
2023-02-24T08:32:01.415Z,95.55
2023-02-24T08:33:01.294Z,96.47
2023-02-24T08:34:01.283Z,96.47
2023-02-24T08:35:01.264Z,95.96
2023-02-24T08:36:01.937Z,96.22
2023-02-24T08:37:01.249Z,96.02
2023-02-24T08:38:01.236Z,95.20
2023-02-24T08:39:01.213Z,94.17
2023-02-24T08:40:01.194Z,93.76
2023-02-24T08:41:01.216Z,93.90
2023-02-24T08:42:01.195Z,95.08
2023-02-24T08:43:01.158Z,95.18
2023-02-24T08:44:01.154Z,95.18
2023-02-24T08:45:01.135Z,96.05
2023-02-24T08:46:01.167Z,95.90
2023-02-24T08:47:01.211Z,95.86
2023-02-24T08:48:01.106Z,95.96
2023-02-24T08:49:01.289Z,96.27
2023-02-24T08:50:01.084Z,96.02
2023-02-24T08:51:01.124Z,95.81
2023-02-24T08:52:01.059Z,94.89
2023-02-24T08:53:01.039Z,94.64
2023-02-24T08:54:01.105Z,93.40
2023-02-24T08:55:01.016Z,94.02
2023-02-24T08:56:01.020Z,93.61
2023-02-24T08:57:00.978Z,93.36
2023-02-24T08:58:00.980Z,94.12
2023-02-24T08:59:00.963Z,93.51
2023-02-24T09:00:01.031Z,93.61
2023-02-24T09:01:01.077Z,93.55
2023-02-24T09:02:04.752Z,92.93
2023-02-24T09:03:00.908Z,93.55
2023-02-24T09:04:07.419Z,92.27
2023-02-24T09:05:00.961Z,92.58
2023-02-24T09:06:00.938Z,92.48
2023-02-24T09:07:11.238Z,93.10
2023-02-24T09:08:00.865Z,93.05
2023-02-24T09:09:00.834Z,92.64
2023-02-24T09:10:01.028Z,92.23
2023-02-24T09:11:00.817Z,92.42
2023-02-24T09:12:00.840Z,93.20
2023-02-24T09:13:00.805Z,93.35
2023-02-24T09:14:00.777Z,93.18
2023-02-24T09:15:00.753Z,93.29
2023-02-24T09:16:00.887Z,94.52
2023-02-24T09:17:00.771Z,94.68
2023-02-24T09:18:00.735Z,93.65
2023-02-24T09:19:00.718Z,94.68
2023-02-24T09:20:00.796Z,95.20
2023-02-24T09:21:00.700Z,95.14
2023-02-24T09:22:01.824Z,95.65
2023-02-24T09:23:00.792Z,95.65
2023-02-24T09:24:00.752Z,96.12
2023-02-24T09:25:00.652Z,96.33
2023-02-24T09:26:00.669Z,94.54
2023-02-24T09:27:00.669Z,93.82
2023-02-24T09:28:00.584Z,93.40
2023-02-24T09:29:00.679Z,93.30
2023-02-24T09:30:00.598Z,93.92
2023-02-24T09:31:00.608Z,94.02
2023-02-24T09:32:00.766Z,93.71
2023-02-24T09:33:00.670Z,94.64
2023-02-24T09:34:00.590Z,94.33
2023-02-24T09:35:00.504Z,94.54
2023-02-24T09:36:00.536Z,94.54
2023-02-24T09:37:00.494Z,94.02
2023-02-24T09:38:00.522Z,94.18
2023-02-24T09:39:00.605Z,93.26
2023-02-24T09:40:00.461Z,93.16
2023-02-24T09:41:07.480Z,93.46
2023-02-24T09:42:00.431Z,93.67
2023-02-24T09:43:00.389Z,94.29
2023-02-24T09:44:00.372Z,94.59
2023-02-24T09:45:00.377Z,94.49
2023-02-24T09:46:00.568Z,92.85
2023-02-24T09:47:00.352Z,93.83
2023-02-24T09:48:00.374Z,92.91
2023-02-24T09:49:00.363Z,93.52
2023-02-24T09:50:00.830Z,92.50
2023-02-24T09:51:03.774Z,92.70
2023-02-24T09:52:00.474Z,92.50
2023-02-24T09:53:10.812Z,93.01
2023-02-24T09:54:00.316Z,92.80
2023-02-24T09:55:00.250Z,92.44
2023-02-24T09:56:00.361Z,92.13
2023-02-24T09:57:00.204Z,92.40
2023-02-24T09:58:00.221Z,91.42
2023-02-24T09:59:00.176Z,90.30
2023-02-24T10:00:00.194Z,90.40
2023-02-24T10:01:00.261Z,90.30
2023-02-24T10:02:00.222Z,90.26
2023-02-24T10:03:00.415Z,89.54
2023-02-24T10:04:02.354Z,88.92
2023-02-24T10:05:00.109Z,89.81
2023-02-24T10:06:00.119Z,89.15
2023-02-24T10:07:00.150Z,88.74
2023-02-24T10:08:00.128Z,87.82
2023-02-24T10:09:00.106Z,87.82
2023-02-24T10:10:00.027Z,86.98
2023-02-24T10:11:00.094Z,88.66
2023-02-24T10:12:00.059Z,89.84
2023-02-24T10:13:00.043Z,88.88
2023-02-24T10:14:07.176Z,87.76
2023-02-24T10:15:00.947Z,86.90
2023-02-24T10:16:05.929Z,86.99
2023-02-24T10:17:00.018Z,87.06
2023-02-24T10:18:00.019Z,85.36
2023-02-24T10:18:59.922Z,87.61
2023-02-24T10:19:59.984Z,87.30
2023-02-24T10:20:59.920Z,86.28
2023-02-24T10:21:59.890Z,84.33
2023-02-24T10:22:59.932Z,85.19
2023-02-24T10:23:59.860Z,84.84
2023-02-24T10:24:59.896Z,84.17
2023-02-24T10:25:59.896Z,84.53
2023-02-24T10:27:07.373Z,85.30
2023-02-24T10:27:59.820Z,85.80
2023-02-24T10:28:59.895Z,86.52
2023-02-24T10:29:59.776Z,87.61
2023-02-24T10:30:59.878Z,84.88
2023-02-24T10:32:00.013Z,86.05
2023-02-24T10:32:59.774Z,88.17
2023-02-24T10:33:59.783Z,86.38
2023-02-24T10:34:59.694Z,86.58
2023-02-24T10:35:59.763Z,85.60
2023-02-24T10:36:59.696Z,85.91
2023-02-24T10:37:59.667Z,85.09
2023-02-24T10:38:59.651Z,85.85
2023-02-24T10:39:59.664Z,86.32
2023-02-24T10:40:59.630Z,85.60
2023-02-24T10:41:59.772Z,85.19
2023-02-24T10:42:59.587Z,85.09
2023-02-24T10:43:59.783Z,83.96
2023-02-24T10:45:02.552Z,85.09
2023-02-24T10:45:59.616Z,83.45
2023-02-24T10:46:59.771Z,83.14
2023-02-24T10:47:59.546Z,83.04
2023-02-24T10:48:59.511Z,82.67
2023-02-24T10:49:59.527Z,84.92
2023-02-24T10:50:59.493Z,84.06
2023-02-24T10:51:59.503Z,82.46
2023-02-24T10:52:59.501Z,81.95
2023-02-24T10:53:59.464Z,82.46
2023-02-24T10:54:59.435Z,82.73
2023-02-24T10:55:59.423Z,82.01
2023-02-24T10:56:59.400Z,79.93
2023-02-24T10:57:59.635Z,79.99
2023-02-24T10:59:01.522Z,79.54
2023-02-24T10:59:59.382Z,78.72
2023-02-24T11:00:59.396Z,78.83
2023-02-24T11:01:59.420Z,78.93
2023-02-24T11:02:59.340Z,80.40
2023-02-24T11:03:59.310Z,80.53
2023-02-24T11:05:00.084Z,79.47
2023-02-24T11:05:59.306Z,78.96
2023-02-24T11:06:59.440Z,79.27
2023-02-24T11:07:59.263Z,78.04
2023-02-24T11:08:59.345Z,76.95
2023-02-24T11:09:59.243Z,77.39
2023-02-24T11:10:59.302Z,75.48
2023-02-24T11:11:59.217Z,76.10
2023-02-24T11:13:08.988Z,73.06
2023-02-24T11:13:59.224Z,73.16
2023-02-24T11:14:59.183Z,73.61
2023-02-24T11:15:59.205Z,74.46
2023-02-24T11:16:59.233Z,74.94
2023-02-24T11:17:59.215Z,76.24
2023-02-24T11:18:59.107Z,75.69
2023-02-24T11:19:59.109Z,74.56
2023-02-24T11:20:59.122Z,75.69
2023-02-24T11:21:59.063Z,75.69
2023-02-24T11:22:59.077Z,75.59
2023-02-24T11:23:59.098Z,75.69
2023-02-24T11:25:01.509Z,74.77
2023-02-24T11:25:59.026Z,73.95
2023-02-24T11:26:58.997Z,72.65
2023-02-24T11:27:59.094Z,73.36
2023-02-24T11:28:59.001Z,73.78
2023-02-24T11:29:59.021Z,73.88
2023-02-24T11:30:59.073Z,74.08
2023-02-24T11:31:59.106Z,73.95
2023-02-24T11:32:58.999Z,72.92
2023-02-24T11:33:58.915Z,72.72
2023-02-24T11:34:58.922Z,73.64
2023-02-24T11:35:58.877Z,74.87
2023-02-24T11:36:58.880Z,73.10
2023-02-24T11:37:58.848Z,72.28
2023-02-24T11:39:15.253Z,72.38
2023-02-24T11:39:59.022Z,72.34
2023-02-24T11:40:58.830Z,71.83
2023-02-24T11:41:58.819Z,71.29
2023-02-24T11:42:58.810Z,70.16
2023-02-24T11:43:58.769Z,69.27
2023-02-24T11:44:58.851Z,68.35
2023-02-24T11:45:58.803Z,68.21
2023-02-24T11:46:58.795Z,69.00
2023-02-24T11:47:58.736Z,69.27
2023-02-24T11:48:58.721Z,69.07
2023-02-24T11:49:58.691Z,68.76
2023-02-24T11:50:58.733Z,69.00
2023-02-24T11:51:58.664Z,70.29
2023-02-24T11:52:58.648Z,68.87
2023-02-24T11:53:58.845Z,68.66
2023-02-24T11:54:58.623Z,67.74
2023-02-24T11:55:59.347Z,68.25
2023-02-24T11:56:58.600Z,69.24
2023-02-24T11:57:58.587Z,68.35
2023-02-24T11:58:58.682Z,69.45
2023-02-24T11:59:58.625Z,68.70
2023-02-24T12:00:58.552Z,66.59
2023-02-24T12:01:58.650Z,66.04
2023-02-24T12:02:58.575Z,67.16
2023-02-24T12:03:58.516Z,67.65
2023-02-24T12:04:58.485Z,68.39
2023-02-24T12:05:58.604Z,68.63
2023-02-24T12:06:58.455Z,69.24
2023-02-24T12:07:58.450Z,68.63
2023-02-24T12:08:58.493Z,67.30
2023-02-24T12:10:14.120Z,68.21
2023-02-24T12:10:58.485Z,69.65
2023-02-24T12:11:58.411Z,70.06
2023-02-24T12:12:58.385Z,69.34
2023-02-24T12:13:58.369Z,70.47
2023-02-24T12:14:58.366Z,69.24
2023-02-24T12:15:58.419Z,70.29
2023-02-24T12:16:58.328Z,70.91
2023-02-24T12:17:58.374Z,70.60
2023-02-24T12:18:58.310Z,70.84
2023-02-24T12:19:58.299Z,71.15
2023-02-24T12:20:58.308Z,71.66
2023-02-24T12:21:58.277Z,71.56
2023-02-24T12:22:58.265Z,70.50
2023-02-24T12:23:58.238Z,69.06
2023-02-24T12:24:58.329Z,69.37
2023-02-24T12:25:58.238Z,69.57
2023-02-24T12:26:58.245Z,69.75
2023-02-24T12:27:58.184Z,69.85
2023-02-24T12:28:58.191Z,68.11
2023-02-24T12:29:58.191Z,68.11
2023-02-24T12:30:58.176Z,69.54
2023-02-24T12:31:58.326Z,70.50
2023-02-24T12:32:58.186Z,68.66
2023-02-24T12:33:58.120Z,68.15
2023-02-24T12:34:58.094Z,67.26
2023-02-24T12:35:58.096Z,68.41
2023-02-24T12:36:58.067Z,68.45
2023-02-24T12:37:58.048Z,68.59
2023-02-24T12:38:58.094Z,69.71
2023-02-24T12:39:58.029Z,70.29
2023-02-24T12:40:58.012Z,69.10
2023-02-24T12:41:57.990Z,69.30
2023-02-24T12:42:58.029Z,69.64
2023-02-24T12:43:57.985Z,70.02
2023-02-24T12:44:57.975Z,69.51
2023-02-24T12:45:57.968Z,68.89
2023-02-24T12:46:58.009Z,69.17
2023-02-24T12:47:57.912Z,69.41
2023-02-24T12:48:57.904Z,69.44
2023-02-24T12:49:57.889Z,68.83
2023-02-24T12:50:57.891Z,69.00
2023-02-24T12:51:57.901Z,69.27